sensor_id;sensor_type;location;lat;lon;timestamp;temperature;humidity
16503;DHT22;53067;48.114;11.694;2022-07-09T00:01:02;16.00;59.70
16503;DHT22;53067;48.114;11.694;2022-07-09T00:03:30;15.90;59.60
16503;DHT22;53067;48.114;11.694;2022-07-09T00:05:57;15.90;59.50
16503;DHT22;53067;48.114;11.694;2022-07-09T00:08:25;15.90;59.50
16503;DHT22;53067;48.114;11.694;2022-07-09T00:10:52;15.90;59.40
16503;DHT22;53067;48.114;11.694;2022-07-09T00:13:20;15.90;59.50
16503;DHT22;53067;48.114;11.694;2022-07-09T00:15:47;15.90;59.60
16503;DHT22;53067;48.114;11.694;2022-07-09T00:18:15;15.80;59.50
16503;DHT22;53067;48.114;11.694;2022-07-09T00:20:43;15.80;59.60
16503;DHT22;53067;48.114;11.694;2022-07-09T00:23:10;15.70;59.60
16503;DHT22;53067;48.114;11.694;2022-07-09T00:25:38;15.70;59.70
16503;DHT22;53067;48.114;11.694;2022-07-09T00:28:05;15.70;59.80
16503;DHT22;53067;48.114;11.694;2022-07-09T00:30:33;15.70;59.80
16503;DHT22;53067;48.114;11.694;2022-07-09T00:33:00;15.70;59.90
16503;DHT22;53067;48.114;11.694;2022-07-09T00:35:28;15.60;59.90
16503;DHT22;53067;48.114;11.694;2022-07-09T00:37:55;15.60;60.10
16503;DHT22;53067;48.114;11.694;2022-07-09T00:40:23;15.50;60.20
16503;DHT22;53067;48.114;11.694;2022-07-09T00:42:51;15.50;60.10
16503;DHT22;53067;48.114;11.694;2022-07-09T00:45:18;15.50;60.50
16503;DHT22;53067;48.114;11.694;2022-07-09T00:47:46;15.40;60.70
16503;DHT22;53067;48.114;11.694;2022-07-09T00:50:14;15.40;60.70
16503;DHT22;53067;48.114;11.694;2022-07-09T00:52:43;15.40;60.90
16503;DHT22;53067;48.114;11.694;2022-07-09T00:55:11;15.40;61.00
16503;DHT22;53067;48.114;11.694;2022-07-09T00:57:40;15.30;61.00
16503;DHT22;53067;48.114;11.694;2022-07-09T01:00:09;15.30;61.20
16503;DHT22;53067;48.114;11.694;2022-07-09T01:02:37;15.30;61.30
16503;DHT22;53067;48.114;11.694;2022-07-09T01:05:05;15.20;61.30
16503;DHT22;53067;48.114;11.694;2022-07-09T01:07:33;15.20;61.60
16503;DHT22;53067;48.114;11.694;2022-07-09T01:10:20;15.10;61.70
16503;DHT22;53067;48.114;11.694;2022-07-09T01:12:47;15.20;61.70
16503;DHT22;53067;48.114;11.694;2022-07-09T01:15:15;15.10;61.90
16503;DHT22;53067;48.114;11.694;2022-07-09T01:17:42;15.10;62.20
16503;DHT22;53067;48.114;11.694;2022-07-09T01:20:10;15.10;62.30
16503;DHT22;53067;48.114;11.694;2022-07-09T01:22:38;15.00;62.60
16503;DHT22;53067;48.114;11.694;2022-07-09T01:25:09;15.00;62.60
16503;DHT22;53067;48.114;11.694;2022-07-09T01:27:38;15.00;62.70
16503;DHT22;53067;48.114;11.694;2022-07-09T01:30:06;15.00;62.70
16503;DHT22;53067;48.114;11.694;2022-07-09T01:32:33;15.00;62.70
16503;DHT22;53067;48.114;11.694;2022-07-09T01:35:01;15.10;62.80
16503;DHT22;53067;48.114;11.694;2022-07-09T01:37:28;15.00;63.00
16503;DHT22;53067;48.114;11.694;2022-07-09T01:39:56;15.00;63.10
16503;DHT22;53067;48.114;11.694;2022-07-09T01:42:23;15.00;63.30
16503;DHT22;53067;48.114;11.694;2022-07-09T01:44:51;15.00;63.30
16503;DHT22;53067;48.114;11.694;2022-07-09T01:47:18;15.00;63.40
16503;DHT22;53067;48.114;11.694;2022-07-09T01:49:46;15.00;63.40
16503;DHT22;53067;48.114;11.694;2022-07-09T01:52:14;15.10;63.40
16503;DHT22;53067;48.114;11.694;2022-07-09T01:54:41;15.10;63.30
16503;DHT22;53067;48.114;11.694;2022-07-09T01:57:09;15.00;63.40
16503;DHT22;53067;48.114;11.694;2022-07-09T01:59:36;15.00;63.50
16503;DHT22;53067;48.114;11.694;2022-07-09T02:02:04;15.10;63.70
16503;DHT22;53067;48.114;11.694;2022-07-09T02:04:32;15.00;63.70
16503;DHT22;53067;48.114;11.694;2022-07-09T02:06:59;15.10;63.80
16503;DHT22;53067;48.114;11.694;2022-07-09T02:09:27;15.10;63.80
16503;DHT22;53067;48.114;11.694;2022-07-09T02:11:55;15.10;63.70
16503;DHT22;53067;48.114;11.694;2022-07-09T02:14:22;15.10;63.80
16503;DHT22;53067;48.114;11.694;2022-07-09T02:16:50;15.10;63.60
16503;DHT22;53067;48.114;11.694;2022-07-09T02:19:17;15.20;63.90
16503;DHT22;53067;48.114;11.694;2022-07-09T02:21:45;15.10;63.80
16503;DHT22;53067;48.114;11.694;2022-07-09T02:24:12;15.20;63.80
16503;DHT22;53067;48.114;11.694;2022-07-09T02:26:40;15.20;63.70
16503;DHT22;53067;48.114;11.694;2022-07-09T02:29:08;15.20;63.60
16503;DHT22;53067;48.114;11.694;2022-07-09T02:31:35;15.30;63.60
16503;DHT22;53067;48.114;11.694;2022-07-09T02:34:03;15.30;63.60
16503;DHT22;53067;48.114;11.694;2022-07-09T02:36:30;15.30;63.50
16503;DHT22;53067;48.114;11.694;2022-07-09T02:38:58;15.30;63.60
16503;DHT22;53067;48.114;11.694;2022-07-09T02:41:25;15.20;63.70
16503;DHT22;53067;48.114;11.694;2022-07-09T02:43:53;15.20;63.80
16503;DHT22;53067;48.114;11.694;2022-07-09T02:46:20;15.30;63.80
16503;DHT22;53067;48.114;11.694;2022-07-09T02:48:48;15.30;63.70
16503;DHT22;53067;48.114;11.694;2022-07-09T02:51:15;15.30;63.60
16503;DHT22;53067;48.114;11.694;2022-07-09T02:53:43;15.30;63.60
16503;DHT22;53067;48.114;11.694;2022-07-09T02:56:10;15.30;63.70
16503;DHT22;53067;48.114;11.694;2022-07-09T02:58:38;15.30;63.50
16503;DHT22;53067;48.114;11.694;2022-07-09T03:01:06;15.40;63.70
16503;DHT22;53067;48.114;11.694;2022-07-09T03:03:34;15.30;63.60
16503;DHT22;53067;48.114;11.694;2022-07-09T03:06:04;15.30;63.70
16503;DHT22;53067;48.114;11.694;2022-07-09T03:08:33;15.40;63.70
16503;DHT22;53067;48.114;11.694;2022-07-09T03:11:01;15.40;63.60
16503;DHT22;53067;48.114;11.694;2022-07-09T03:13:29;15.50;63.70
16503;DHT22;53067;48.114;11.694;2022-07-09T03:15:57;15.50;63.60
16503;DHT22;53067;48.114;11.694;2022-07-09T03:18:24;15.50;63.40
16503;DHT22;53067;48.114;11.694;2022-07-09T03:20:52;15.60;63.40
16503;DHT22;53067;48.114;11.694;2022-07-09T03:23:19;15.60;63.20
16503;DHT22;53067;48.114;11.694;2022-07-09T03:25:47;15.70;63.10
16503;DHT22;53067;48.114;11.694;2022-07-09T03:28:15;15.70;62.90
16503;DHT22;53067;48.114;11.694;2022-07-09T03:30:42;15.70;63.60
16503;DHT22;53067;48.114;11.694;2022-07-09T03:33:10;15.80;63.00
16503;DHT22;53067;48.114;11.694;2022-07-09T03:35:37;15.80;63.00
16503;DHT22;53067;48.114;11.694;2022-07-09T03:38:06;15.80;62.90
16503;DHT22;53067;48.114;11.694;2022-07-09T03:40:33;15.80;63.00
16503;DHT22;53067;48.114;11.694;2022-07-09T03:43:01;15.90;63.90
16503;DHT22;53067;48.114;11.694;2022-07-09T03:45:28;15.90;63.00
16503;DHT22;53067;48.114;11.694;2022-07-09T03:47:56;15.90;63.10
16503;DHT22;53067;48.114;11.694;2022-07-09T03:50:23;15.90;63.00
16503;DHT22;53067;48.114;11.694;2022-07-09T03:52:51;16.00;62.80
16503;DHT22;53067;48.114;11.694;2022-07-09T03:55:18;15.90;63.50
16503;DHT22;53067;48.114;11.694;2022-07-09T03:57:46;15.90;62.90
16503;DHT22;53067;48.114;11.694;2022-07-09T04:00:14;15.90;63.00
16503;DHT22;53067;48.114;11.694;2022-07-09T04:02:41;15.90;63.00
16503;DHT22;53067;48.114;11.694;2022-07-09T04:05:09;16.00;62.80
16503;DHT22;53067;48.114;11.694;2022-07-09T04:07:38;16.00;62.90
16503;DHT22;53067;48.114;11.694;2022-07-09T04:10:07;16.10;62.90
16503;DHT22;53067;48.114;11.694;2022-07-09T04:12:35;16.00;63.00
16503;DHT22;53067;48.114;11.694;2022-07-09T04:15:02;16.10;62.90
16503;DHT22;53067;48.114;11.694;2022-07-09T04:17:30;16.10;63.00
16503;DHT22;53067;48.114;11.694;2022-07-09T04:19:57;16.10;63.10
16503;DHT22;53067;48.114;11.694;2022-07-09T04:22:25;16.10;63.00
16503;DHT22;53067;48.114;11.694;2022-07-09T04:24:52;16.10;63.90
16503;DHT22;53067;48.114;11.694;2022-07-09T04:27:20;16.10;63.20
16503;DHT22;53067;48.114;11.694;2022-07-09T04:29:47;16.10;63.30
16503;DHT22;53067;48.114;11.694;2022-07-09T04:32:15;16.10;63.20
16503;DHT22;53067;48.114;11.694;2022-07-09T04:34:43;16.10;63.30
16503;DHT22;53067;48.114;11.694;2022-07-09T04:37:10;16.10;63.50
16503;DHT22;53067;48.114;11.694;2022-07-09T04:39:38;16.10;63.50
16503;DHT22;53067;48.114;11.694;2022-07-09T04:42:05;16.20;63.60
16503;DHT22;53067;48.114;11.694;2022-07-09T04:44:33;16.20;63.50
16503;DHT22;53067;48.114;11.694;2022-07-09T04:47:00;16.30;63.60
16503;DHT22;53067;48.114;11.694;2022-07-09T04:49:28;16.30;63.50
16503;DHT22;53067;48.114;11.694;2022-07-09T04:51:55;16.30;63.70
16503;DHT22;53067;48.114;11.694;2022-07-09T04:54:23;16.40;63.80
16503;DHT22;53067;48.114;11.694;2022-07-09T04:56:50;16.40;64.60
16503;DHT22;53067;48.114;11.694;2022-07-09T04:59:18;16.40;63.70
16503;DHT22;53067;48.114;11.694;2022-07-09T05:01:46;16.50;63.60
16503;DHT22;53067;48.114;11.694;2022-07-09T05:04:14;16.50;63.40
16503;DHT22;53067;48.114;11.694;2022-07-09T05:06:42;16.50;63.40
16503;DHT22;53067;48.114;11.694;2022-07-09T05:09:09;16.60;63.30
16503;DHT22;53067;48.114;11.694;2022-07-09T05:11:37;16.60;63.30
16503;DHT22;53067;48.114;11.694;2022-07-09T05:14:04;16.70;63.20
16503;DHT22;53067;48.114;11.694;2022-07-09T05:16:33;16.70;63.40
16503;DHT22;53067;48.114;11.694;2022-07-09T05:19:00;16.70;63.30
16503;DHT22;53067;48.114;11.694;2022-07-09T05:21:28;16.70;63.40
16503;DHT22;53067;48.114;11.694;2022-07-09T05:23:55;16.70;63.00
16503;DHT22;53067;48.114;11.694;2022-07-09T05:26:23;16.70;63.40
16503;DHT22;53067;48.114;11.694;2022-07-09T05:28:50;16.80;63.50
16503;DHT22;53067;48.114;11.694;2022-07-09T05:31:18;16.80;63.50
16503;DHT22;53067;48.114;11.694;2022-07-09T05:33:47;16.90;63.40
16503;DHT22;53067;48.114;11.694;2022-07-09T05:36:14;16.90;63.30
16503;DHT22;53067;48.114;11.694;2022-07-09T05:38:42;17.00;63.20
16503;DHT22;53067;48.114;11.694;2022-07-09T05:41:09;17.00;63.10
16503;DHT22;53067;48.114;11.694;2022-07-09T05:43:37;17.10;63.20
16503;DHT22;53067;48.114;11.694;2022-07-09T05:46:05;17.10;62.80
16503;DHT22;53067;48.114;11.694;2022-07-09T05:48:32;17.20;62.90
16503;DHT22;53067;48.114;11.694;2022-07-09T05:51:01;17.30;62.80
16503;DHT22;53067;48.114;11.694;2022-07-09T05:53:29;17.30;62.40
16503;DHT22;53067;48.114;11.694;2022-07-09T05:55:57;17.30;62.60
16503;DHT22;53067;48.114;11.694;2022-07-09T05:58:24;17.40;62.70
16503;DHT22;53067;48.114;11.694;2022-07-09T06:00:52;17.50;62.50
16503;DHT22;53067;48.114;11.694;2022-07-09T06:03:20;17.50;62.40
16503;DHT22;53067;48.114;11.694;2022-07-09T06:05:47;17.60;62.40
16503;DHT22;53067;48.114;11.694;2022-07-09T06:08:15;17.70;62.30
16503;DHT22;53067;48.114;11.694;2022-07-09T06:10:43;17.70;61.90
16503;DHT22;53067;48.114;11.694;2022-07-09T06:13:10;17.80;62.10
16503;DHT22;53067;48.114;11.694;2022-07-09T06:15:38;17.80;62.00
16503;DHT22;53067;48.114;11.694;2022-07-09T06:18:05;17.90;62.10
16503;DHT22;53067;48.114;11.694;2022-07-09T06:20:33;17.90;61.90
16503;DHT22;53067;48.114;11.694;2022-07-09T06:23:00;17.90;61.70
16503;DHT22;53067;48.114;11.694;2022-07-09T06:25:28;18.00;61.70
16503;DHT22;53067;48.114;11.694;2022-07-09T06:27:56;18.10;61.60
16503;DHT22;53067;48.114;11.694;2022-07-09T06:30:24;18.20;61.20
16503;DHT22;53067;48.114;11.694;2022-07-09T06:32:51;18.20;61.60
16503;DHT22;53067;48.114;11.694;2022-07-09T06:35:19;18.20;60.70
16503;DHT22;53067;48.114;11.694;2022-07-09T06:37:47;18.30;60.70
16503;DHT22;53067;48.114;11.694;2022-07-09T06:40:14;18.40;59.60
16503;DHT22;53067;48.114;11.694;2022-07-09T06:42:42;18.40;58.30
16503;DHT22;53067;48.114;11.694;2022-07-09T06:45:10;18.40;58.00
16503;DHT22;53067;48.114;11.694;2022-07-09T06:47:37;18.40;58.30
16503;DHT22;53067;48.114;11.694;2022-07-09T06:50:11;18.50;58.30
16503;DHT22;53067;48.114;11.694;2022-07-09T06:52:39;18.50;58.30
16503;DHT22;53067;48.114;11.694;2022-07-09T06:55:06;18.50;58.30
16503;DHT22;53067;48.114;11.694;2022-07-09T06:57:34;18.60;58.30
16503;DHT22;53067;48.114;11.694;2022-07-09T07:00:07;18.70;58.40
16503;DHT22;53067;48.114;11.694;2022-07-09T07:02:35;18.80;58.30
16503;DHT22;53067;48.114;11.694;2022-07-09T07:05:03;18.80;57.90
16503;DHT22;53067;48.114;11.694;2022-07-09T07:07:31;18.70;58.10
16503;DHT22;53067;48.114;11.694;2022-07-09T07:09:59;18.90;58.20
16503;DHT22;53067;48.114;11.694;2022-07-09T07:12:26;19.00;58.20
16503;DHT22;53067;48.114;11.694;2022-07-09T07:14:54;19.10;58.10
16503;DHT22;53067;48.114;11.694;2022-07-09T07:17:21;19.20;58.20
16503;DHT22;53067;48.114;11.694;2022-07-09T07:19:49;19.20;57.60
16503;DHT22;53067;48.114;11.694;2022-07-09T07:22:16;19.30;57.30
16503;DHT22;53067;48.114;11.694;2022-07-09T07:24:44;19.30;56.60
16503;DHT22;53067;48.114;11.694;2022-07-09T07:27:11;19.30;56.20
16503;DHT22;53067;48.114;11.694;2022-07-09T07:29:39;19.40;56.10
16503;DHT22;53067;48.114;11.694;2022-07-09T07:32:07;19.40;55.70
16503;DHT22;53067;48.114;11.694;2022-07-09T07:34:35;19.40;55.70
16503;DHT22;53067;48.114;11.694;2022-07-09T07:37:03;19.50;55.40
16503;DHT22;53067;48.114;11.694;2022-07-09T07:39:30;19.50;55.10
16503;DHT22;53067;48.114;11.694;2022-07-09T07:41:58;19.60;55.30
16503;DHT22;53067;48.114;11.694;2022-07-09T07:44:25;19.60;55.20
16503;DHT22;53067;48.114;11.694;2022-07-09T07:46:55;19.70;54.30
16503;DHT22;53067;48.114;11.694;2022-07-09T07:49:22;19.70;53.20
16503;DHT22;53067;48.114;11.694;2022-07-09T07:51:50;19.70;53.50
16503;DHT22;53067;48.114;11.694;2022-07-09T07:54:17;19.70;53.30
16503;DHT22;53067;48.114;11.694;2022-07-09T07:56:45;19.70;53.40
16503;DHT22;53067;48.114;11.694;2022-07-09T07:59:12;19.70;53.60
16503;DHT22;53067;48.114;11.694;2022-07-09T08:01:40;19.80;52.40
16503;DHT22;53067;48.114;11.694;2022-07-09T08:04:07;19.70;52.00
16503;DHT22;53067;48.114;11.694;2022-07-09T08:06:35;19.70;51.80
16503;DHT22;53067;48.114;11.694;2022-07-09T08:09:03;19.60;51.80
16503;DHT22;53067;48.114;11.694;2022-07-09T08:11:31;19.70;52.00
16503;DHT22;53067;48.114;11.694;2022-07-09T08:13:58;19.70;52.20
16503;DHT22;53067;48.114;11.694;2022-07-09T08:16:26;19.80;51.80
16503;DHT22;53067;48.114;11.694;2022-07-09T08:18:53;19.80;52.10
16503;DHT22;53067;48.114;11.694;2022-07-09T08:21:21;19.90;53.00
16503;DHT22;53067;48.114;11.694;2022-07-09T08:23:48;20.00;53.50
16503;DHT22;53067;48.114;11.694;2022-07-09T08:26:23;20.10;52.20
16503;DHT22;53067;48.114;11.694;2022-07-09T08:28:50;20.10;52.40
16503;DHT22;53067;48.114;11.694;2022-07-09T08:31:19;20.10;52.30
16503;DHT22;53067;48.114;11.694;2022-07-09T08:33:47;20.20;52.00
16503;DHT22;53067;48.114;11.694;2022-07-09T08:36:15;20.30;51.60
16503;DHT22;53067;48.114;11.694;2022-07-09T08:38:43;20.30;51.40
16503;DHT22;53067;48.114;11.694;2022-07-09T08:41:10;20.40;50.70
16503;DHT22;53067;48.114;11.694;2022-07-09T08:43:39;20.40;51.00
16503;DHT22;53067;48.114;11.694;2022-07-09T08:46:07;20.40;50.70
16503;DHT22;53067;48.114;11.694;2022-07-09T08:48:36;20.50;51.50
16503;DHT22;53067;48.114;11.694;2022-07-09T08:51:03;20.60;50.10
16503;DHT22;53067;48.114;11.694;2022-07-09T08:53:31;20.60;50.30
16503;DHT22;53067;48.114;11.694;2022-07-09T08:55:59;20.70;50.80
16503;DHT22;53067;48.114;11.694;2022-07-09T08:58:26;20.90;51.20
16503;DHT22;53067;48.114;11.694;2022-07-09T09:00:54;21.00;51.10
16503;DHT22;53067;48.114;11.694;2022-07-09T09:03:23;21.00;49.50
16503;DHT22;53067;48.114;11.694;2022-07-09T09:06:08;20.90;50.00
16503;DHT22;53067;48.114;11.694;2022-07-09T09:08:37;20.90;50.70
16503;DHT22;53067;48.114;11.694;2022-07-09T09:11:13;20.90;50.70
16503;DHT22;53067;48.114;11.694;2022-07-09T09:13:47;21.00;50.90
16503;DHT22;53067;48.114;11.694;2022-07-09T09:16:12;21.10;50.10
16503;DHT22;53067;48.114;11.694;2022-07-09T09:18:41;21.20;49.00
16503;DHT22;53067;48.114;11.694;2022-07-09T09:21:10;21.20;49.10
16503;DHT22;53067;48.114;11.694;2022-07-09T09:23:53;21.30;49.80
16503;DHT22;53067;48.114;11.694;2022-07-09T09:26:23;21.40;49.50
16503;DHT22;53067;48.114;11.694;2022-07-09T09:28:53;21.50;48.50
16503;DHT22;53067;48.114;11.694;2022-07-09T09:33:52;21.70;47.00
16503;DHT22;53067;48.114;11.694;2022-07-09T09:39:10;21.70;47.10
16503;DHT22;53067;48.114;11.694;2022-07-09T09:41:38;21.80;46.20
16503;DHT22;53067;48.114;11.694;2022-07-09T09:44:07;21.80;45.60
16503;DHT22;53067;48.114;11.694;2022-07-09T09:46:39;22.00;46.50
16503;DHT22;53067;48.114;11.694;2022-07-09T09:49:08;22.20;46.70
16503;DHT22;53067;48.114;11.694;2022-07-09T09:51:45;22.30;45.20
16503;DHT22;53067;48.114;11.694;2022-07-09T09:54:08;22.30;44.00
16503;DHT22;53067;48.114;11.694;2022-07-09T09:56:39;22.40;45.30
16503;DHT22;53067;48.114;11.694;2022-07-09T09:59:06;22.60;43.60
16503;DHT22;53067;48.114;11.694;2022-07-09T10:01:34;22.60;43.60
16503;DHT22;53067;48.114;11.694;2022-07-09T10:04:02;22.70;42.90
16503;DHT22;53067;48.114;11.694;2022-07-09T10:06:29;22.80;42.70
16503;DHT22;53067;48.114;11.694;2022-07-09T10:08:57;22.70;42.60
16503;DHT22;53067;48.114;11.694;2022-07-09T10:11:24;22.60;42.30
16503;DHT22;53067;48.114;11.694;2022-07-09T10:13:57;22.70;42.10
16503;DHT22;53067;48.114;11.694;2022-07-09T10:16:36;22.80;42.50
16503;DHT22;53067;48.114;11.694;2022-07-09T10:19:04;22.90;42.60
16503;DHT22;53067;48.114;11.694;2022-07-09T10:21:40;23.10;41.50
16503;DHT22;53067;48.114;11.694;2022-07-09T10:24:08;23.30;41.40
16503;DHT22;53067;48.114;11.694;2022-07-09T10:26:46;23.40;40.70
16503;DHT22;53067;48.114;11.694;2022-07-09T10:29:25;23.50;41.60
16503;DHT22;53067;48.114;11.694;2022-07-09T10:31:54;23.70;41.20
16503;DHT22;53067;48.114;11.694;2022-07-09T10:34:50;23.90;40.00
16503;DHT22;53067;48.114;11.694;2022-07-09T10:37:13;23.90;41.10
16503;DHT22;53067;48.114;11.694;2022-07-09T10:39:51;24.00;39.90
16503;DHT22;53067;48.114;11.694;2022-07-09T10:42:21;24.10;37.80
16503;DHT22;53067;48.114;11.694;2022-07-09T10:44:50;24.10;37.80
16503;DHT22;53067;48.114;11.694;2022-07-09T10:47:19;24.00;37.80
16503;DHT22;53067;48.114;11.694;2022-07-09T10:49:47;23.90;37.80
16503;DHT22;53067;48.114;11.694;2022-07-09T10:52:15;23.90;39.00
16503;DHT22;53067;48.114;11.694;2022-07-09T10:54:47;23.90;39.60
16503;DHT22;53067;48.114;11.694;2022-07-09T10:57:15;24.10;39.40
16503;DHT22;53067;48.114;11.694;2022-07-09T10:59:46;24.20;38.60
16503;DHT22;53067;48.114;11.694;2022-07-09T11:02:21;24.30;37.90
16503;DHT22;53067;48.114;11.694;2022-07-09T11:04:50;24.30;37.30
16503;DHT22;53067;48.114;11.694;2022-07-09T11:07:24;24.20;38.00
16503;DHT22;53067;48.114;11.694;2022-07-09T11:09:52;24.10;38.50
16503;DHT22;53067;48.114;11.694;2022-07-09T11:12:21;24.00;39.00
16503;DHT22;53067;48.114;11.694;2022-07-09T11:14:50;24.00;39.50
16503;DHT22;53067;48.114;11.694;2022-07-09T11:17:19;24.00;39.50
16503;DHT22;53067;48.114;11.694;2022-07-09T11:19:48;23.90;39.80
16503;DHT22;53067;48.114;11.694;2022-07-09T11:22:16;23.80;40.30
16503;DHT22;53067;48.114;11.694;2022-07-09T11:24:43;23.90;40.60
16503;DHT22;53067;48.114;11.694;2022-07-09T11:27:13;24.00;40.00
16503;DHT22;53067;48.114;11.694;2022-07-09T11:29:45;24.00;39.90
16503;DHT22;53067;48.114;11.694;2022-07-09T11:32:15;24.00;40.40
16503;DHT22;53067;48.114;11.694;2022-07-09T11:34:49;24.20;41.00
16503;DHT22;53067;48.114;11.694;2022-07-09T11:37:24;24.30;39.80
16503;DHT22;53067;48.114;11.694;2022-07-09T11:39:53;24.40;38.90
16503;DHT22;53067;48.114;11.694;2022-07-09T11:42:20;24.50;39.30
16503;DHT22;53067;48.114;11.694;2022-07-09T11:44:59;24.70;39.00
16503;DHT22;53067;48.114;11.694;2022-07-09T11:47:38;24.90;38.50
16503;DHT22;53067;48.114;11.694;2022-07-09T11:50:10;24.90;35.50
16503;DHT22;53067;48.114;11.694;2022-07-09T11:52:42;24.70;36.90
16503;DHT22;53067;48.114;11.694;2022-07-09T11:55:13;24.70;36.70
16503;DHT22;53067;48.114;11.694;2022-07-09T11:57:52;24.70;38.40
16503;DHT22;53067;48.114;11.694;2022-07-09T12:00:22;25.00;38.60
16503;DHT22;53067;48.114;11.694;2022-07-09T12:02:49;25.10;38.20
16503;DHT22;53067;48.114;11.694;2022-07-09T12:05:31;25.30;38.50
16503;DHT22;53067;48.114;11.694;2022-07-09T12:08:01;25.50;38.90
16503;DHT22;53067;48.114;11.694;2022-07-09T12:10:37;25.60;37.10
16503;DHT22;53067;48.114;11.694;2022-07-09T12:13:05;25.70;37.80
16503;DHT22;53067;48.114;11.694;2022-07-09T12:15:33;25.80;37.50
16503;DHT22;53067;48.114;11.694;2022-07-09T12:18:01;25.90;37.40
16503;DHT22;53067;48.114;11.694;2022-07-09T12:20:30;26.00;36.40
16503;DHT22;53067;48.114;11.694;2022-07-09T12:22:58;26.00;37.10
16503;DHT22;53067;48.114;11.694;2022-07-09T12:25:26;26.00;37.10
16503;DHT22;53067;48.114;11.694;2022-07-09T12:27:53;26.00;35.60
16503;DHT22;53067;48.114;11.694;2022-07-09T12:30:21;25.90;37.00
16503;DHT22;53067;48.114;11.694;2022-07-09T12:32:49;26.00;37.20
16503;DHT22;53067;48.114;11.694;2022-07-09T12:35:17;26.10;37.30
16503;DHT22;53067;48.114;11.694;2022-07-09T12:37:45;26.20;36.50
16503;DHT22;53067;48.114;11.694;2022-07-09T12:40:12;26.10;35.70
16503;DHT22;53067;48.114;11.694;2022-07-09T12:42:40;25.90;35.20
16503;DHT22;53067;48.114;11.694;2022-07-09T12:45:08;25.80;35.70
16503;DHT22;53067;48.114;11.694;2022-07-09T12:47:36;25.80;35.40
16503;DHT22;53067;48.114;11.694;2022-07-09T12:50:04;25.80;36.00
16503;DHT22;53067;48.114;11.694;2022-07-09T12:52:33;25.90;36.10
16503;DHT22;53067;48.114;11.694;2022-07-09T12:55:01;25.90;34.70
16503;DHT22;53067;48.114;11.694;2022-07-09T12:57:29;25.90;34.40
16503;DHT22;53067;48.114;11.694;2022-07-09T12:59:56;25.90;35.40
16503;DHT22;53067;48.114;11.694;2022-07-09T13:02:24;25.90;34.60
16503;DHT22;53067;48.114;11.694;2022-07-09T13:04:52;25.80;34.30
16503;DHT22;53067;48.114;11.694;2022-07-09T13:07:20;25.80;34.30
16503;DHT22;53067;48.114;11.694;2022-07-09T13:09:47;25.70;35.50
16503;DHT22;53067;48.114;11.694;2022-07-09T13:12:15;25.80;35.60
16503;DHT22;53067;48.114;11.694;2022-07-09T13:14:42;25.80;34.30
16503;DHT22;53067;48.114;11.694;2022-07-09T13:17:10;25.90;35.50
16503;DHT22;53067;48.114;11.694;2022-07-09T13:19:37;26.00;34.40
16503;DHT22;53067;48.114;11.694;2022-07-09T13:22:05;26.00;34.30
16503;DHT22;53067;48.114;11.694;2022-07-09T13:24:34;26.10;35.00
16503;DHT22;53067;48.114;11.694;2022-07-09T13:27:02;26.20;35.20
16503;DHT22;53067;48.114;11.694;2022-07-09T13:29:32;26.30;35.10
16503;DHT22;53067;48.114;11.694;2022-07-09T13:31:59;26.40;34.20
16503;DHT22;53067;48.114;11.694;2022-07-09T13:34:27;26.30;34.60
16503;DHT22;53067;48.114;11.694;2022-07-09T13:36:54;26.30;34.50
16503;DHT22;53067;48.114;11.694;2022-07-09T13:39:22;26.30;35.00
16503;DHT22;53067;48.114;11.694;2022-07-09T13:41:49;26.30;35.10
16503;DHT22;53067;48.114;11.694;2022-07-09T13:44:17;26.30;34.90
16503;DHT22;53067;48.114;11.694;2022-07-09T13:46:44;26.30;34.10
16503;DHT22;53067;48.114;11.694;2022-07-09T13:49:12;26.20;35.40
16503;DHT22;53067;48.114;11.694;2022-07-09T13:51:39;26.30;35.00
16503;DHT22;53067;48.114;11.694;2022-07-09T13:54:07;26.30;34.10
16503;DHT22;53067;48.114;11.694;2022-07-09T13:56:35;26.20;34.50
16503;DHT22;53067;48.114;11.694;2022-07-09T13:59:02;26.00;34.60
16503;DHT22;53067;48.114;11.694;2022-07-09T14:01:30;25.90;35.40
16503;DHT22;53067;48.114;11.694;2022-07-09T14:03:58;25.70;35.60
16503;DHT22;53067;48.114;11.694;2022-07-09T14:06:25;25.60;35.80
16503;DHT22;53067;48.114;11.694;2022-07-09T14:08:54;25.60;35.80
16503;DHT22;53067;48.114;11.694;2022-07-09T14:11:22;25.60;36.00
16503;DHT22;53067;48.114;11.694;2022-07-09T14:13:49;25.70;36.10
16503;DHT22;53067;48.114;11.694;2022-07-09T14:16:18;25.80;35.70
16503;DHT22;53067;48.114;11.694;2022-07-09T14:18:46;25.80;35.90
16503;DHT22;53067;48.114;11.694;2022-07-09T14:21:13;25.80;35.90
16503;DHT22;53067;48.114;11.694;2022-07-09T14:23:41;25.70;35.60
16503;DHT22;53067;48.114;11.694;2022-07-09T14:26:10;25.60;35.40
16503;DHT22;53067;48.114;11.694;2022-07-09T14:28:38;25.50;35.90
16503;DHT22;53067;48.114;11.694;2022-07-09T14:31:05;25.50;36.50
16503;DHT22;53067;48.114;11.694;2022-07-09T14:33:33;25.50;36.60
16503;DHT22;53067;48.114;11.694;2022-07-09T14:36:00;25.60;36.50
16503;DHT22;53067;48.114;11.694;2022-07-09T14:38:28;25.60;36.30
16503;DHT22;53067;48.114;11.694;2022-07-09T14:40:55;25.60;36.50
16503;DHT22;53067;48.114;11.694;2022-07-09T14:43:23;25.70;36.90
16503;DHT22;53067;48.114;11.694;2022-07-09T14:45:50;25.70;36.50
16503;DHT22;53067;48.114;11.694;2022-07-09T14:48:19;25.70;36.50
16503;DHT22;53067;48.114;11.694;2022-07-09T14:50:46;25.60;36.50
16503;DHT22;53067;48.114;11.694;2022-07-09T14:53:14;25.60;37.40
16503;DHT22;53067;48.114;11.694;2022-07-09T14:56:38;25.60;37.60
16503;DHT22;53067;48.114;11.694;2022-07-09T14:59:07;25.50;37.20
16503;DHT22;53067;48.114;11.694;2022-07-09T15:01:36;25.50;37.20
16503;DHT22;53067;48.114;11.694;2022-07-09T15:04:03;25.40;37.60
16503;DHT22;53067;48.114;11.694;2022-07-09T15:06:31;25.30;36.60
16503;DHT22;53067;48.114;11.694;2022-07-09T15:08:59;25.20;36.10
16503;DHT22;53067;48.114;11.694;2022-07-09T15:11:26;25.10;36.80
16503;DHT22;53067;48.114;11.694;2022-07-09T15:13:54;25.10;37.40
16503;DHT22;53067;48.114;11.694;2022-07-09T15:16:21;25.10;37.70
16503;DHT22;53067;48.114;11.694;2022-07-09T15:18:49;25.10;37.60
16503;DHT22;53067;48.114;11.694;2022-07-09T15:21:17;25.10;37.70
16503;DHT22;53067;48.114;11.694;2022-07-09T15:23:45;25.10;38.30
16503;DHT22;53067;48.114;11.694;2022-07-09T15:26:12;25.10;38.30
16503;DHT22;53067;48.114;11.694;2022-07-09T15:28:40;25.10;38.20